Time;durP1;ratioP1;P1;durP2;ratioP2;P2;SDS_P1;SDS_P2;PMS_P1;PMS_P2;Temp;Humidity;BMP_temperature;BMP_pressure;BME280_temperature;BME280_humidity;BME280_pressure;Samples;Min_cycle;Max_cycle;Signal;HPM_P1;HPM_P2
2023/02/01 00:00:49;;;;;;;1.20;1.10;;;4.20;97.30;;;;;;5050807;28;20186;-88
2023/02/01 00:03:15;;;;;;;3.73;3.53;;;4.10;97.30;;;;;;5038009;28;20172;-88
2023/02/01 00:05:40;;;;;;;1.37;1.27;;;4.10;97.30;;;;;;5043631;28;20203;-87
2023/02/01 00:08:06;;;;;;;3.90;1.20;;;4.10;97.30;;;;;;5054551;28;20179;-87
2023/02/01 00:10:31;;;;;;;1.10;1.00;;;4.10;97.30;;;;;;5048136;28;20164;-87
2023/02/01 00:12:57;;;;;;;3.70;2.03;;;4.10;97.30;;;;;;5035740;28;20168;-87
2023/02/01 00:15:23;;;;;;;1.03;0.93;;;4.00;97.30;;;;;;5053700;28;20283;-88
2023/02/01 00:17:52;;;;;;;1.30;1.20;;;4.00;97.30;;;;;;5045148;28;20187;-88
2023/02/01 00:20:18;;;;;;;1.07;0.97;;;4.00;97.30;;;;;;5047413;28;20191;-88
2023/02/01 00:22:43;;;;;;;2.23;2.03;;;4.00;97.30;;;;;;5046141;28;20422;-87
2023/02/01 00:25:09;;;;;;;1.07;0.97;;;4.00;97.30;;;;;;5035504;28;20223;-88
2023/02/01 00:27:34;;;;;;;1.80;1.73;;;4.00;97.30;;;;;;5043737;28;20270;-87
2023/02/01 00:30:00;;;;;;;1.43;1.33;;;4.00;97.30;;;;;;5051588;28;20266;-87
2023/02/01 00:32:25;;;;;;;3.47;2.70;;;4.00;97.30;;;;;;5035407;28;20186;-88
2023/02/01 00:34:51;;;;;;;1.13;1.03;;;4.10;97.30;;;;;;5039077;28;20591;-88
2023/02/01 00:37:16;;;;;;;1.03;0.93;;;4.10;97.30;;;;;;5043800;28;20172;-88
2023/02/01 00:39:42;;;;;;;1.27;1.17;;;4.10;97.30;;;;;;5035289;28;20654;-88
2023/02/01 00:42:08;;;;;;;1.27;1.17;;;4.10;97.30;;;;;;5061539;28;20343;-88
2023/02/01 00:44:35;;;;;;;1.60;1.50;;;4.10;97.30;;;;;;5043284;28;20219;-88
2023/02/01 00:47:01;;;;;;;1.23;1.10;;;4.10;97.30;;;;;;5051009;28;20453;-88
2023/02/01 00:49:27;;;;;;;1.63;1.53;;;4.20;97.30;;;;;;5043230;28;20944;-88
2023/02/01 00:51:52;;;;;;;3.07;1.23;;;4.10;97.30;;;;;;5043256;28;20429;-88
2023/02/01 00:54:18;;;;;;;1.07;0.97;;;4.20;97.30;;;;;;5040869;28;20419;-87
2023/02/01 00:56:43;;;;;;;1.30;1.20;;;4.20;97.30;;;;;;5042640;28;20234;-88
2023/02/01 00:59:12;;;;;;;1.67;1.00;;;4.20;97.30;;;;;;5050358;28;20190;-88
2023/02/01 01:01:38;;;;;;;2.23;2.03;;;4.20;97.30;;;;;;5052710;28;20696;-87
2023/02/01 01:04:03;;;;;;;5.60;2.50;;;4.20;97.30;;;;;;5048980;28;20410;-88
2023/02/01 01:06:32;;;;;;;1.33;1.23;;;4.20;97.30;;;;;;5054032;28;20213;-88
2023/02/01 01:09:00;;;;;;;1.13;1.03;;;4.30;97.30;;;;;;5056978;28;20211;-87
2023/02/01 01:11:29;;;;;;;1.23;1.13;;;4.30;97.30;;;;;;5042767;28;20548;-87
2023/02/01 01:13:56;;;;;;;1.47;1.17;;;4.30;97.30;;;;;;5036529;28;20509;-88
2023/02/01 01:16:23;;;;;;;1.00;0.90;;;4.30;97.30;;;;;;5057760;28;20438;-87
2023/02/01 01:18:49;;;;;;;1.20;1.20;;;4.40;97.30;;;;;;5052171;28;20841;-88
2023/02/01 01:21:15;;;;;;;1.60;1.50;;;4.40;97.30;;;;;;5034336;28;20799;-89
2023/02/01 01:23:41;;;;;;;1.10;1.00;;;4.40;97.30;;;;;;5051517;28;20438;-88
2023/02/01 01:26:09;;;;;;;1.03;0.93;;;4.40;97.30;;;;;;5041192;28;20480;-88
2023/02/01 01:28:35;;;;;;;1.20;1.10;;;4.40;97.30;;;;;;5042388;28;20195;-88
2023/02/01 01:31:01;;;;;;;1.70;1.60;;;4.40;97.30;;;;;;5056684;28;20417;-87
2023/02/01 01:33:26;;;;;;;1.10;1.00;;;4.40;97.30;;;;;;5057403;28;20803;-88
2023/02/01 01:35:52;;;;;;;5.90;1.50;;;4.40;97.30;;;;;;5040610;28;20844;-88
2023/02/01 01:38:17;;;;;;;1.00;1.00;;;4.50;97.30;;;;;;5065150;28;20186;-89
2023/02/01 01:40:47;;;;;;;1.30;1.20;;;4.50;97.30;;;;;;5045696;28;20180;-88
2023/02/01 01:43:14;;;;;;;1.87;1.23;;;4.50;97.30;;;;;;5045648;28;20182;-88
2023/02/01 01:45:40;;;;;;;2.07;1.93;;;4.50;97.30;;;;;;5063687;28;20484;-88
2023/02/01 01:48:09;;;;;;;2.00;1.37;;;4.50;97.30;;;;;;5041817;28;20811;-88
2023/02/01 01:50:48;;;;;;;1.13;1.03;;;4.40;97.30;;;;;;5051655;28;20198;-88
2023/02/01 01:53:18;;;;;;;1.40;1.30;;;4.40;97.30;;;;;;5026596;28;20618;-88
2023/02/01 01:55:46;;;;;;;1.20;1.10;;;4.40;97.30;;;;;;5041456;28;20456;-88
2023/02/01 01:58:17;;;;;;;1.53;1.43;;;4.40;97.30;;;;;;5041154;28;20534;-88
2023/02/01 02:00:44;;;;;;;1.07;0.97;;;4.40;97.30;;;;;;5033399;28;20426;-88
2023/02/01 02:03:27;;;;;;;2.40;1.83;;;4.30;97.30;;;;;;5042483;28;20414;-87
2023/02/01 02:05:55;;;;;;;1.37;1.27;;;4.40;97.30;;;;;;5035197;28;20859;-88
2023/02/01 02:08:21;;;;;;;2.70;2.07;;;4.40;97.30;;;;;;5051355;28;20433;-87
2023/02/01 02:11:00;;;;;;;1.10;1.00;;;4.40;97.30;;;;;;5040447;28;20410;-87
2023/02/01 02:13:49;;;;;;;3.50;1.80;;;4.40;97.30;;;;;;5051099;28;20414;-88
2023/02/01 02:16:40;;;;;;;1.90;1.77;;;4.40;97.30;;;;;;5044609;28;21152;-88
2023/02/01 02:19:43;;;;;;;1.10;1.00;;;4.40;97.30;;;;;;5041524;28;20799;-88
2023/02/01 02:22:27;;;;;;;1.40;1.30;;;4.40;97.30;;;;;;5025499;28;20513;-88
2023/02/01 02:25:30;;;;;;;1.67;1.47;;;4.40;97.30;;;;;;5060717;28;20475;-88
2023/02/01 02:27:56;;;;;;;1.10;1.00;;;4.40;97.30;;;;;;5035831;28;20426;-88
2023/02/01 02:30:48;;;;;;;1.93;1.87;;;4.30;97.30;;;;;;5028595;28;20845;-88
2023/02/01 02:33:50;;;;;;;1.00;0.90;;;4.30;97.30;;;;;;5025759;28;20266;-88
2023/02/01 02:36:32;;;;;;;1.00;0.90;;;4.30;97.30;;;;;;5037430;28;20446;-88
2023/02/01 02:39:18;;;;;;;1.30;1.20;;;4.40;97.30;;;;;;5048077;28;20458;-89
2023/02/01 02:48:18;;;;;;;1.33;1.23;;;4.40;97.30;;;;;;5054362;28;20416;-88
2023/02/01 03:05:20;;;;;;;1.00;0.90;;;4.40;97.30;;;;;;5043618;28;20469;-88
2023/02/01 03:08:01;;;;;;;3.17;2.97;;;4.40;97.30;;;;;;5040547;28;20414;-88
2023/02/01 03:10:44;;;;;;;1.20;1.10;;;4.50;97.30;;;;;;5049141;28;20414;-88
2023/02/01 03:13:45;;;;;;;1.00;0.90;;;4.40;97.30;;;;;;5032540;28;20454;-88
2023/02/01 03:16:14;;;;;;;1.10;1.00;;;4.40;97.30;;;;;;5024528;28;21036;-87
2023/02/01 03:18:54;;;;;;;1.20;1.10;;;4.40;97.30;;;;;;5058453;28;20497;-87
2023/02/01 03:21:42;;;;;;;1.37;1.27;;;4.50;97.30;;;;;;5027582;28;20536;-88
2023/02/01 03:24:12;;;;;;;2.33;2.13;;;4.50;97.30;;;;;;5060842;28;20437;-88
2023/02/01 03:26:43;;;;;;;4.40;1.80;;;4.50;97.30;;;;;;5038429;28;20733;-89
2023/02/01 03:29:14;;;;;;;1.20;1.10;;;4.60;97.30;;;;;;5050485;28;20468;-87
2023/02/01 03:31:40;;;;;;;2.33;2.13;;;4.60;97.30;;;;;;5032167;28;20446;-88
2023/02/01 03:34:05;;;;;;;3.93;1.63;;;4.60;97.30;;;;;;5040356;28;20952;-87
2023/02/01 03:36:47;;;;;;;1.00;0.90;;;4.60;97.30;;;;;;5038266;28;20203;-88
2023/02/01 03:39:18;;;;;;;2.37;2.23;;;4.60;97.30;;;;;;5043263;28;20216;-87
2023/02/01 03:41:50;;;;;;;1.20;1.10;;;4.60;97.30;;;;;;5045052;28;20480;-88
2023/02/01 03:44:32;;;;;;;1.10;1.00;;;4.60;97.30;;;;;;5044095;28;20418;-88
2023/02/01 03:47:11;;;;;;;1.33;1.23;;;4.60;97.30;;;;;;5044150;28;20459;-88
2023/02/01 03:49:57;;;;;;;1.10;1.00;;;4.60;97.30;;;;;;5035961;28;20503;-88
2023/02/01 03:52:34;;;;;;;13.40;3.63;;;4.60;97.30;;;;;;5029311;28;20418;-88
2023/02/01 03:55:01;;;;;;;1.20;1.17;;;4.70;97.30;;;;;;5037653;28;20445;-88
2023/02/01 03:57:32;;;;;;;1.00;0.90;;;4.70;97.30;;;;;;5052196;28;20998;-88
2023/02/01 04:00:16;;;;;;;0.93;0.83;;;4.70;97.30;;;;;;5044849;28;20898;-87
2023/02/01 04:02:41;;;;;;;1.60;1.50;;;4.70;97.30;;;;;;5030454;28;20805;-87
2023/02/01 04:05:07;;;;;;;19.73;2.33;;;4.70;97.30;;;;;;5043710;28;20462;-88
2023/02/01 04:07:33;;;;;;;1.27;1.17;;;4.70;97.30;;;;;;5053850;28;20290;-87
2023/02/01 04:09:58;;;;;;;2.60;2.33;;;4.70;97.30;;;;;;5037106;28;20655;-87
2023/02/01 04:12:24;;;;;;;1.57;1.47;;;4.70;97.30;;;;;;5059970;28;20241;-88
2023/02/01 04:14:49;;;;;;;2.40;2.20;;;4.70;97.30;;;;;;5043605;28;20234;-87
2023/02/01 04:17:15;;;;;;;5.40;1.43;;;4.70;97.30;;;;;;5043785;28;20249;-87
2023/02/01 04:19:40;;;;;;;1.40;1.30;;;4.70;97.30;;;;;;5043779;28;20176;-87
2023/02/01 04:22:06;;;;;;;1.47;1.30;;;4.70;97.30;;;;;;5036003;28;20187;-87
2023/02/01 04:24:31;;;;;;;4.97;1.50;;;4.70;97.30;;;;;;5049012;28;20234;-88
2023/02/01 04:26:57;;;;;;;1.10;1.00;;;4.70;97.30;;;;;;5046169;28;20175;-89
2023/02/01 04:29:22;;;;;;;0.90;0.80;;;4.70;97.30;;;;;;5043630;28;20776;-87
2023/02/01 04:31:49;;;;;;;1.57;1.47;;;4.80;97.30;;;;;;5035445;28;20183;-89
2023/02/01 04:34:14;;;;;;;2.60;2.40;;;4.70;97.30;;;;;;5028424;28;20662;-87
2023/02/01 04:36:40;;;;;;;1.73;1.63;;;4.70;97.30;;;;;;5046920;28;20576;-87
2023/02/01 04:39:05;;;;;;;4.27;1.47;;;4.70;97.30;;;;;;5046781;28;20263;-89
2023/02/01 04:41:31;;;;;;;8.80;2.53;;;4.70;97.30;;;;;;5049480;28;20658;-87
2023/02/01 04:43:56;;;;;;;3.70;3.03;;;4.70;97.30;;;;;;5051222;28;20701;-89
2023/02/01 04:46:22;;;;;;;1.63;1.53;;;4.70;97.30;;;;;;5043201;28;20215;-88
2023/02/01 04:48:47;;;;;;;2.60;1.60;;;4.80;97.30;;;;;;5043101;28;20456;-87
2023/02/01 04:51:14;;;;;;;0.93;0.90;;;4.70;97.30;;;;;;5053857;28;20262;-88
2023/02/01 04:53:40;;;;;;;2.17;1.83;;;4.70;97.30;;;;;;5047994;28;20594;-88
2023/02/01 04:56:06;;;;;;;2.67;2.40;;;4.70;97.30;;;;;;5038339;28;20446;-89
2023/02/01 04:58:32;;;;;;;0.90;0.80;;;4.70;97.30;;;;;;5065829;28;20182;-88
2023/02/01 05:00:57;;;;;;;1.67;1.47;;;4.70;97.30;;;;;;5055546;28;20824;-87
2023/02/01 05:03:23;;;;;;;1.47;1.43;;;4.70;97.30;;;;;;5061185;28;20187;-87
2023/02/01 05:05:48;;;;;;;2.67;2.20;;;4.70;97.30;;;;;;5071135;28;20257;-87
2023/02/01 05:08:15;;;;;;;1.53;1.43;;;4.70;97.30;;;;;;5044449;28;20687;-87
2023/02/01 05:10:40;;;;;;;3.67;3.47;;;4.70;97.30;;;;;;5042897;28;20575;-87
2023/02/01 05:15:51;;;;;;;1.40;1.30;;;4.70;97.30;;;;;;5053312;28;20292;-87
2023/02/01 05:18:17;;;;;;;1.10;1.00;;;4.70;97.30;;;;;;5038078;28;20433;-88
2023/02/01 05:20:42;;;;;;;2.50;1.77;;;4.70;97.30;;;;;;5051728;28;20203;-87
2023/02/01 05:23:07;;;;;;;2.30;1.80;;;4.70;97.30;;;;;;5053932;28;20179;-88
2023/02/01 05:25:33;;;;;;;1.40;1.30;;;4.70;97.30;;;;;;5048075;28;21031;-88
2023/02/01 05:27:58;;;;;;;2.07;1.83;;;4.70;97.30;;;;;;5050927;28;20187;-88
2023/02/01 05:30:24;;;;;;;1.40;1.27;;;4.70;97.30;;;;;;5047227;28;20171;-88
2023/02/01 05:32:51;;;;;;;1.43;1.33;;;4.70;97.30;;;;;;5046423;28;20176;-87
2023/02/01 05:35:16;;;;;;;1.13;1.03;;;4.70;97.30;;;;;;5033953;28;20990;-87
2023/02/01 05:37:42;;;;;;;1.13;1.07;;;4.70;97.30;;;;;;5042614;28;20426;-88
2023/02/01 05:40:08;;;;;;;1.93;1.83;;;4.70;97.30;;;;;;5042022;28;20564;-87
2023/02/01 05:42:33;;;;;;;5.37;2.80;;;4.70;97.30;;;;;;5048215;28;20179;-87
2023/02/01 05:44:59;;;;;;;1.83;1.73;;;4.70;97.30;;;;;;5036206;28;20462;-89
2023/02/01 05:47:25;;;;;;;8.33;2.97;;;4.70;97.30;;;;;;5034360;28;20203;-87
2023/02/01 05:49:50;;;;;;;1.50;1.40;;;4.60;97.30;;;;;;5059911;28;20175;-88
2023/02/01 05:52:19;;;;;;;1.80;1.70;;;4.60;97.30;;;;;;5042374;28;20183;-88
2023/02/01 05:54:45;;;;;;;4.77;1.97;;;4.60;97.30;;;;;;5040934;28;20202;-87
2023/02/01 05:57:12;;;;;;;2.50;2.40;;;4.60;97.30;;;;;;5045904;28;21132;-87
2023/02/01 05:59:40;;;;;;;1.47;1.17;;;4.60;97.30;;;;;;5039442;28;20414;-87
2023/02/01 06:02:07;;;;;;;1.00;0.90;;;4.60;97.30;;;;;;5035617;28;20714;-87
2023/02/01 06:04:32;;;;;;;2.40;2.20;;;4.60;97.30;;;;;;5067213;28;20447;-87
2023/02/01 06:06:58;;;;;;;1.30;1.20;;;4.60;97.30;;;;;;5082274;28;20437;-87
2023/02/01 06:09:23;;;;;;;1.47;1.37;;;4.60;97.30;;;;;;5065814;28;20195;-87
2023/02/01 06:11:48;;;;;;;1.70;1.17;;;4.60;97.30;;;;;;5063214;28;20180;-87
2023/02/01 06:14:14;;;;;;;1.00;0.90;;;4.60;97.30;;;;;;5058673;28;20331;-86
2023/02/01 06:16:39;;;;;;;1.13;1.03;;;4.60;97.30;;;;;;5076895;28;20184;-87
2023/02/01 06:19:05;;;;;;;1.50;1.40;;;4.60;97.30;;;;;;5064088;28;20192;-87
2023/02/01 06:21:30;;;;;;;1.10;1.00;;;4.60;97.30;;;;;;5076245;28;20216;-86
2023/02/01 06:23:57;;;;;;;1.40;1.30;;;4.60;97.30;;;;;;5053722;28;20164;-86
2023/02/01 06:26:23;;;;;;;1.10;1.00;;;4.60;97.30;;;;;;5070899;28;20234;-87
2023/02/01 06:28:48;;;;;;;0.87;0.77;;;4.60;97.30;;;;;;5071139;28;20410;-86
2023/02/01 06:31:14;;;;;;;1.30;1.20;;;4.60;97.30;;;;;;5051985;28;20190;-87
2023/02/01 06:33:40;;;;;;;1.17;1.07;;;4.60;97.30;;;;;;5052809;28;20183;-87
2023/02/01 06:36:07;;;;;;;24.80;2.27;;;4.60;97.30;;;;;;5057828;28;20234;-87
2023/02/01 06:38:36;;;;;;;1.30;1.20;;;4.60;97.30;;;;;;5045265;28;20171;-87
2023/02/01 06:41:03;;;;;;;1.23;1.13;;;4.50;97.30;;;;;;5041667;28;20433;-88
2023/02/01 06:43:29;;;;;;;1.30;1.20;;;4.60;97.30;;;;;;5035502;28;20446;-87
2023/02/01 06:46:05;;;;;;;2.57;2.43;;;4.50;97.30;;;;;;5039026;28;20497;-87
2023/02/01 06:48:31;;;;;;;11.97;1.70;;;4.50;97.30;;;;;;5029405;28;20403;-87
2023/02/01 06:50:56;;;;;;;2.03;1.90;;;4.60;97.30;;;;;;5039804;28;20987;-88
2023/02/01 06:53:22;;;;;;;1.80;1.77;;;4.60;97.30;;;;;;5043760;28;20172;-89
2023/02/01 06:55:52;;;;;;;1.63;1.53;;;4.60;97.30;;;;;;5046775;28;20199;-88
2023/02/01 06:58:17;;;;;;;2.20;2.00;;;4.60;97.30;;;;;;5034385;28;20175;-86
2023/02/01 07:00:43;;;;;;;1.10;1.00;;;4.70;97.30;;;;;;5034051;28;20932;-87
2023/02/01 07:03:08;;;;;;;2.30;1.57;;;4.70;97.30;;;;;;5054740;28;20462;-87
2023/02/01 07:05:34;;;;;;;1.00;0.90;;;4.70;97.30;;;;;;5049167;28;20215;-87
2023/02/01 07:07:59;;;;;;;1.20;1.10;;;4.80;97.30;;;;;;5047301;28;20190;-87
2023/02/01 07:10:25;;;;;;;1.63;1.60;;;4.80;97.30;;;;;;5033811;28;20172;-87
2023/02/01 07:12:50;;;;;;;2.63;1.97;;;4.80;97.30;;;;;;5033874;28;20222;-88
2023/02/01 07:15:16;;;;;;;1.27;1.17;;;4.80;97.30;;;;;;5041834;28;20230;-88
2023/02/01 07:18:13;;;;;;;3.17;1.53;;;4.90;97.30;;;;;;5042824;28;20182;-88
2023/02/01 07:20:39;;;;;;;2.60;1.50;;;4.90;97.30;;;;;;5021752;28;20188;-88
2023/02/01 07:23:10;;;;;;;16.60;4.40;;;5.00;97.30;;;;;;5037454;28;20416;-87
2023/02/01 07:25:39;;;;;;;1.60;1.50;;;5.00;97.30;;;;;;5034508;28;20227;-88
2023/02/01 07:28:10;;;;;;;2.30;2.13;;;5.00;97.30;;;;;;5034463;28;20446;-88
2023/02/01 07:30:39;;;;;;;3.10;2.90;;;5.00;97.30;;;;;;5041113;28;20422;-87
2023/02/01 07:36:49;;;;;;;1.23;1.13;;;5.00;97.30;;;;;;5032265;28;20453;-87
2023/02/01 07:40:10;;;;;;;1.40;1.30;;;5.10;97.30;;;;;;5038604;28;20444;-87
2023/02/01 07:42:58;;;;;;;5.03;3.07;;;5.10;97.30;;;;;;5036303;28;20461;-87
2023/02/01 07:45:29;;;;;;;1.57;1.47;;;5.10;97.30;;;;;;5039197;28;20461;-87
2023/02/01 07:47:55;;;;;;;1.97;1.00;;;5.10;97.30;;;;;;5038630;28;20514;-87
2023/02/01 07:50:20;;;;;;;16.17;2.93;;;5.20;97.30;;;;;;5041114;28;20517;-87
2023/02/01 07:52:46;;;;;;;34.07;2.50;;;5.20;97.30;;;;;;5049207;28;20217;-87
2023/02/01 07:55:11;;;;;;;1.00;0.90;;;5.20;97.30;;;;;;5040678;28;20240;-88
2023/02/01 07:57:37;;;;;;;1.73;1.63;;;5.20;97.30;;;;;;5042157;28;20184;-90
2023/02/01 08:02:47;;;;;;;0.90;0.80;;;5.30;97.30;;;;;;5057933;28;20194;-87
2023/02/01 08:05:13;;;;;;;1.70;1.33;;;5.30;97.30;;;;;;5041860;28;21011;-87
2023/02/01 08:07:38;;;;;;;1.17;1.07;;;5.40;97.30;;;;;;5041263;28;20370;-88
2023/02/01 08:10:10;;;;;;;17.60;1.43;;;5.30;97.30;;;;;;5045984;28;20176;-88
2023/02/01 08:12:36;;;;;;;1.00;1.00;;;5.40;97.30;;;;;;5041942;28;20234;-87
2023/02/01 08:15:01;;;;;;;1.53;1.43;;;5.40;97.30;;;;;;5041213;28;20454;-86
2023/02/01 08:17:28;;;;;;;0.87;0.77;;;5.40;97.30;;;;;;5033546;28;20415;-86
2023/02/01 08:19:53;;;;;;;2.13;1.90;;;5.40;97.30;;;;;;5035111;28;20932;-88
2023/02/01 08:22:19;;;;;;;4.80;3.23;;;5.40;97.30;;;;;;5050004;28;20524;-87
2023/02/01 08:24:47;;;;;;;1.20;1.10;;;5.30;97.30;;;;;;5042509;28;20226;-87
2023/02/01 08:27:13;;;;;;;3.00;2.80;;;5.30;97.30;;;;;;5038967;28;20198;-87
2023/02/01 08:29:39;;;;;;;5.50;1.67;;;5.30;97.30;;;;;;5038683;28;20790;-88
2023/02/01 08:32:04;;;;;;;2.60;2.23;;;5.30;97.30;;;;;;5055942;28;20207;-87
2023/02/01 08:34:30;;;;;;;2.93;1.33;;;5.20;97.30;;;;;;5062021;28;20198;-87
2023/02/01 08:36:59;;;;;;;1.30;1.20;;;5.20;97.30;;;;;;5038642;28;20176;-87
2023/02/01 08:39:25;;;;;;;1.50;1.40;;;5.10;97.30;;;;;;5046971;28;20176;-88
2023/02/01 08:44:39;;;;;;;2.03;1.90;;;5.10;97.30;;;;;;5021788;28;20515;-88
2023/02/01 08:47:05;;;;;;;1.70;1.60;;;5.00;97.30;;;;;;5055178;28;20788;-89
2023/02/01 08:49:30;;;;;;;4.40;2.70;;;4.90;97.30;;;;;;5046365;28;20194;-88
2023/02/01 08:51:56;;;;;;;2.00;1.57;;;4.70;97.30;;;;;;5054551;28;20194;-88
2023/02/01 08:54:21;;;;;;;2.70;2.50;;;4.60;97.30;;;;;;5046110;28;20180;-88
2023/02/01 08:56:47;;;;;;;1.77;1.67;;;4.40;97.30;;;;;;5041713;28;20188;-87
2023/02/01 08:59:12;;;;;;;1.13;1.03;;;4.30;97.30;;;;;;5035743;28;20180;-88
2023/02/01 09:01:38;;;;;;;0.87;0.77;;;4.20;97.30;;;;;;5042863;28;20236;-89
2023/02/01 09:04:03;;;;;;;0.87;0.77;;;4.20;97.30;;;;;;5035617;28;20191;-88
2023/02/01 09:06:29;;;;;;;1.30;1.20;;;4.10;97.30;;;;;;5039752;28;20211;-88
2023/02/01 09:08:55;;;;;;;2.27;2.07;;;4.10;97.30;;;;;;5044502;28;20266;-89
2023/02/01 09:11:21;;;;;;;1.10;1.00;;;4.10;97.30;;;;;;5035779;28;20274;-88
2023/02/01 09:13:47;;;;;;;1.07;0.97;;;4.10;97.30;;;;;;5044377;28;20891;-88
2023/02/01 09:16:15;;;;;;;9.10;1.60;;;4.10;97.30;;;;;;5053827;28;20204;-88
2023/02/01 09:18:41;;;;;;;1.10;1.00;;;4.10;97.30;;;;;;5035615;28;20434;-88
2023/02/01 09:21:07;;;;;;;6.63;1.40;;;4.10;97.30;;;;;;5038539;28;20517;-87
2023/02/01 09:23:33;;;;;;;1.10;1.00;;;4.10;97.30;;;;;;5035307;28;20184;-88
2023/02/01 09:26:00;;;;;;;1.00;0.90;;;4.10;97.30;;;;;;5035383;28;20257;-88
2023/02/01 09:28:26;;;;;;;1.00;0.90;;;4.10;97.30;;;;;;5043839;28;20430;-88
2023/02/01 09:30:56;;;;;;;1.20;1.10;;;4.10;97.30;;;;;;5035310;28;20421;-88
2023/02/01 09:33:23;;;;;;;1.50;1.40;;;4.20;97.30;;;;;;5051386;28;20415;-87
2023/02/01 09:35:49;;;;;;;1.10;1.00;;;4.20;97.30;;;;;;5043538;28;20446;-87
2023/02/01 09:38:14;;;;;;;4.00;2.53;;;4.20;97.30;;;;;;5035550;28;20426;-88
2023/02/01 09:40:44;;;;;;;1.40;1.30;;;4.30;97.30;;;;;;5036858;28;20217;-88
2023/02/01 09:43:24;;;;;;;1.27;1.17;;;4.30;97.30;;;;;;5038061;28;20274;-88
2023/02/01 09:46:11;;;;;;;1.50;1.13;;;4.30;97.30;;;;;;5035019;28;20501;-87
2023/02/01 09:48:42;;;;;;;1.10;1.00;;;4.40;97.30;;;;;;5052079;28;20410;-89
2023/02/01 09:51:16;;;;;;;1.13;1.03;;;4.50;97.30;;;;;;5038528;28;20423;-88
2023/02/01 09:53:46;;;;;;;1.00;1.00;;;4.50;97.30;;;;;;5035232;28;20505;-88
2023/02/01 09:56:21;;;;;;;1.50;1.40;;;4.60;97.30;;;;;;5061191;28;20438;-88
2023/02/01 09:59:01;;;;;;;3.83;1.67;;;4.60;97.30;;;;;;5052872;28;20935;-88
2023/02/01 10:01:29;;;;;;;4.93;1.67;;;4.70;97.30;;;;;;5043538;28;20746;-88
2023/02/01 10:04:24;;;;;;;1.00;0.90;;;4.80;97.30;;;;;;5034997;28;20979;-88
2023/02/01 10:07:08;;;;;;;1.57;1.47;;;4.80;97.30;;;;;;5023512;28;20726;-88
2023/02/01 10:09:52;;;;;;;15.30;1.90;;;4.90;97.30;;;;;;5027373;28;20433;-88
2023/02/01 10:12:48;;;;;;;1.30;1.20;;;5.00;97.30;;;;;;5043278;28;20432;-88
2023/02/01 10:15:39;;;;;;;13.90;2.03;;;5.10;97.30;;;;;;5038251;28;20469;-87
2023/02/01 10:18:14;;;;;;;42.77;1.77;;;5.10;97.30;;;;;;5037353;28;20488;-88
2023/02/01 10:20:56;;;;;;;1.23;1.13;;;5.20;97.30;;;;;;5034192;28;20425;-88
2023/02/01 10:23:53;;;;;;;1.77;1.73;;;5.30;97.30;;;;;;5049555;28;20446;-88
2023/02/01 10:26:24;;;;;;;1.07;0.97;;;5.40;97.30;;;;;;5034084;28;21031;-86
2023/02/01 10:29:02;;;;;;;0.90;0.80;;;5.40;97.30;;;;;;5048048;28;20418;-88
2023/02/01 10:31:37;;;;;;;1.23;0.97;;;5.50;97.30;;;;;;5034676;28;20502;-88
2023/02/01 10:34:26;;;;;;;1.20;1.10;;;5.50;97.30;;;;;;5034787;28;20482;-88
2023/02/01 10:36:59;;;;;;;1.00;0.90;;;5.60;97.30;;;;;;5028869;28;20943;-88
2023/02/01 10:39:25;;;;;;;1.47;1.33;;;5.70;97.30;;;;;;5049937;28;20410;-88
2023/02/01 10:41:51;;;;;;;1.37;1.27;;;5.80;97.30;;;;;;5051679;28;20429;-87
2023/02/01 10:44:26;;;;;;;6.53;1.20;;;5.90;97.30;;;;;;5034524;28;20658;-88
2023/02/01 10:46:51;;;;;;;1.13;1.03;;;5.90;97.30;;;;;;5045232;28;20946;-87
2023/02/01 10:49:29;;;;;;;1.40;1.30;;;6.00;97.30;;;;;;5034979;28;20406;-87
2023/02/01 10:52:05;;;;;;;18.87;1.30;;;5.90;97.30;;;;;;5055814;28;20515;-87
2023/02/01 10:54:40;;;;;;;2.00;1.40;;;6.00;97.30;;;;;;5061464;28;20437;-88
2023/02/01 10:57:11;;;;;;;0.90;0.80;;;6.00;97.30;;;;;;5061451;28;20447;-88
2023/02/01 10:59:38;;;;;;;2.80;2.50;;;6.10;97.30;;;;;;5036766;28;21007;-87
2023/02/01 11:02:19;;;;;;;3.17;2.23;;;6.20;97.30;;;;;;5061084;28;20414;-89
2023/02/01 11:04:45;;;;;;;3.77;2.30;;;6.30;97.30;;;;;;5053775;28;20549;-88
2023/02/01 11:07:23;;;;;;;1.80;1.20;;;6.40;97.30;;;;;;5034554;28;20505;-87
2023/02/01 11:09:56;;;;;;;2.23;2.03;;;6.50;97.30;;;;;;5034765;28;20294;-88
2023/02/01 11:12:28;;;;;;;1.20;1.13;;;6.60;97.30;;;;;;5049342;28;20851;-88
2023/02/01 11:15:02;;;;;;;1.57;1.13;;;6.80;97.30;;;;;;5042527;28;20479;-88
2023/02/01 11:17:34;;;;;;;1.10;1.00;;;6.90;97.30;;;;;;5034443;28;20421;-89
2023/02/01 11:20:03;;;;;;;1.20;1.10;;;7.10;97.30;;;;;;5050315;28;20435;-87
2023/02/01 11:22:29;;;;;;;3.43;1.93;;;7.20;97.30;;;;;;5053964;28;20422;-89
2023/02/01 11:25:01;;;;;;;1.10;1.00;;;7.20;97.30;;;;;;5043036;28;20481;-87
2023/02/01 11:27:27;;;;;;;1.00;0.90;;;7.10;97.30;;;;;;5042341;28;20472;-88
2023/02/01 11:30:04;;;;;;;2.03;1.90;;;7.00;97.30;;;;;;5043862;28;20493;-87
2023/02/01 11:32:30;;;;;;;3.80;1.20;;;6.90;97.30;;;;;;5043563;28;20421;-87
2023/02/01 11:35:40;;;;;;;1.60;1.50;;;6.90;97.30;;;;;;5058956;23;20504;-87
2023/02/01 11:38:41;;;;;;;1.53;1.43;;;6.90;97.30;;;;;;5044524;28;20464;-88
2023/02/01 11:41:40;;;;;;;1.00;0.90;;;6.90;97.30;;;;;;5067593;28;20421;-87
2023/02/01 11:44:40;;;;;;;1.20;1.10;;;7.00;97.30;;;;;;5067167;28;20429;-89
2023/02/01 11:47:25;;;;;;;1.47;1.37;;;7.10;97.30;;;;;;5055979;28;20422;-88
2023/02/01 11:49:53;;;;;;;2.60;2.40;;;7.20;97.30;;;;;;5052162;28;20426;-86
2023/02/01 11:52:45;;;;;;;1.83;1.10;;;7.10;97.30;;;;;;5035385;28;20422;-87
2023/02/01 11:55:31;;;;;;;1.63;1.53;;;7.10;97.30;;;;;;5041769;28;20438;-87
2023/02/01 11:58:03;;;;;;;1.37;1.27;;;7.00;97.30;;;;;;5041917;28;20425;-87
2023/02/01 12:00:51;;;;;;;1.40;1.30;;;7.00;97.30;;;;;;5053421;28;20455;-87
2023/02/01 12:03:55;;;;;;;3.00;2.00;;;6.90;97.30;;;;;;5047995;28;20467;-86
2023/02/01 12:06:56;;;;;;;1.47;1.40;;;6.90;97.30;;;;;;5073408;28;20668;-87
2023/02/01 12:09:37;;;;;;;6.83;1.27;;;6.90;97.30;;;;;;5046420;28;20409;-89
2023/02/01 12:12:40;;;;;;;1.00;0.90;;;6.90;97.30;;;;;;5037153;28;20418;-87
2023/02/01 12:15:18;;;;;;;2.17;2.00;;;7.00;97.30;;;;;;5036932;28;20998;-87
2023/02/01 12:17:50;;;;;;;1.50;1.40;;;7.00;97.30;;;;;;5045238;28;20429;-87
2023/02/01 12:20:47;;;;;;;1.10;1.00;;;7.10;97.30;;;;;;5036941;28;20426;-86
2023/02/01 12:23:43;;;;;;;1.70;1.60;;;7.10;97.30;;;;;;5071672;28;20424;-86
2023/02/01 12:26:38;;;;;;;4.70;1.20;;;7.10;97.30;;;;;;5059597;28;20460;-87
2023/02/01 12:29:42;;;;;;;2.50;2.30;;;7.20;97.30;;;;;;5044910;28;20414;-86
2023/02/01 12:32:35;;;;;;;1.17;1.07;;;7.20;97.30;;;;;;5063018;28;20409;-88
2023/02/01 12:35:31;;;;;;;1.20;1.10;;;7.20;97.30;;;;;;5050964;28;20457;-87
2023/02/01 12:38:35;;;;;;;1.10;1.00;;;7.20;97.30;;;;;;5050416;28;20571;-87
2023/02/01 12:41:19;;;;;;;1.80;1.70;;;7.20;97.30;;;;;;5051471;28;20867;-87
2023/02/01 12:43:52;;;;;;;1.03;0.93;;;7.20;97.20;;;;;;5045051;28;20920;-87
2023/02/01 12:46:37;;;;;;;1.70;1.10;;;7.20;97.00;;;;;;5053770;28;20472;-87
2023/02/01 12:49:05;;;;;;;7.10;1.13;;;7.30;97.10;;;;;;5041759;28;20847;-88
2023/02/01 12:51:41;;;;;;;0.80;0.70;;;7.30;96.80;;;;;;5039383;28;20457;-87
2023/02/01 12:54:15;;;;;;;4.20;1.73;;;7.30;96.60;;;;;;5040566;28;20425;-87
2023/02/01 12:56:46;;;;;;;1.20;1.10;;;7.30;96.30;;;;;;5052844;28;20485;-86
2023/02/01 12:59:31;;;;;;;1.07;0.97;;;7.30;96.20;;;;;;5050614;28;20504;-85
2023/02/01 13:02:09;;;;;;;1.53;1.40;;;7.30;96.20;;;;;;5050058;28;20959;-86
2023/02/01 13:04:45;;;;;;;1.10;1.00;;;7.30;96.70;;;;;;5051516;28;20816;-86
2023/02/01 13:07:17;;;;;;;8.10;1.50;;;7.20;96.10;;;;;;5070855;28;20429;-86
2023/02/01 13:09:51;;;;;;;1.53;1.50;;;7.20;95.80;;;;;;5044074;28;20450;-88
2023/02/01 13:12:31;;;;;;;0.90;0.80;;;7.20;95.90;;;;;;5062468;28;20406;-87
2023/02/01 13:15:28;;;;;;;3.80;1.90;;;7.20;95.40;;;;;;5047238;28;20479;-86
2023/02/01 13:17:57;;;;;;;1.20;1.10;;;7.20;95.30;;;;;;5035602;28;20947;-88
2023/02/01 13:20:45;;;;;;;1.20;1.10;;;7.20;95.10;;;;;;5044049;28;20429;-87
2023/02/01 13:23:23;;;;;;;1.00;0.90;;;7.20;94.80;;;;;;5060036;28;20505;-86
2023/02/01 13:25:51;;;;;;;7.47;3.13;;;7.20;95.20;;;;;;5044005;28;20462;-86
2023/02/01 13:28:20;;;;;;;1.03;0.93;;;7.10;94.80;;;;;;5035883;28;20496;-87
2023/02/01 13:31:16;;;;;;;3.50;3.10;;;7.10;94.80;;;;;;5082088;28;20423;-87
2023/02/01 13:33:54;;;;;;;1.20;1.10;;;7.10;94.80;;;;;;5035862;28;20428;-87
2023/02/01 13:37:05;;;;;;;1.73;1.63;;;7.10;94.70;;;;;;5043546;28;20481;-87
2023/02/01 13:39:51;;;;;;;1.37;1.30;;;7.00;94.70;;;;;;5007885;28;20522;-87
2023/02/01 13:42:29;;;;;;;1.20;1.10;;;7.00;95.00;;;;;;5047443;28;20425;-87
2023/02/01 13:45:05;;;;;;;1.63;1.50;;;7.00;94.80;;;;;;5041789;28;20517;-87
2023/02/01 13:47:40;;;;;;;1.53;1.43;;;7.00;94.80;;;;;;5054186;28;20436;-87
2023/02/01 13:50:22;;;;;;;3.13;1.50;;;7.10;94.70;;;;;;5047122;28;20443;-86
2023/02/01 13:52:58;;;;;;;1.10;1.00;;;7.10;94.80;;;;;;5044477;28;20580;-87
2023/02/01 13:55:27;;;;;;;1.00;0.90;;;7.10;94.90;;;;;;5064110;28;20817;-88
2023/02/01 13:58:04;;;;;;;1.10;1.00;;;7.10;94.40;;;;;;5053430;28;20429;-87